createdAt,value
2019-01-30T00:00:35.850Z,-0.42
2019-01-30T00:01:35.840Z,-0.48
2019-01-30T00:02:35.830Z,-0.47
2019-01-30T00:03:35.819Z,-0.42
2019-01-30T00:04:35.807Z,-0.47
2019-01-30T00:05:35.800Z,-0.50
2019-01-30T00:06:35.785Z,-0.44
2019-01-30T00:07:35.775Z,-0.45
2019-01-30T00:08:35.763Z,-0.50
2019-01-30T00:09:35.752Z,-0.45
2019-01-30T00:10:35.755Z,-0.48
2019-01-30T00:11:35.733Z,-0.41
2019-01-30T00:12:35.724Z,-0.52
2019-01-30T00:13:35.708Z,-0.47
2019-01-30T00:14:35.699Z,-0.42
2019-01-30T00:15:35.690Z,-0.42
2019-01-30T00:16:35.676Z,-0.44
2019-01-30T00:17:35.665Z,-0.52
2019-01-30T00:18:35.677Z,-0.44
2019-01-30T00:19:35.643Z,-0.48
2019-01-30T00:20:35.633Z,-0.34
2019-01-30T00:21:35.629Z,-0.44
2019-01-30T00:22:35.616Z,-0.39
2019-01-30T00:23:35.599Z,-0.47
2019-01-30T00:24:35.589Z,-0.48
2019-01-30T00:25:35.577Z,-0.55
2019-01-30T00:26:35.571Z,-0.63
2019-01-30T00:27:35.562Z,-0.70
2019-01-30T00:28:35.548Z,-0.72
2019-01-30T00:29:35.533Z,-0.66
2019-01-30T00:30:35.549Z,-0.63
2019-01-30T00:31:35.515Z,-0.63
2019-01-30T00:32:35.498Z,-0.60
2019-01-30T00:33:35.499Z,-0.63
2019-01-30T00:34:35.479Z,-0.63
2019-01-30T00:35:35.469Z,-0.55
2019-01-30T00:36:35.460Z,-0.66
2019-01-30T00:37:35.445Z,-0.69
2019-01-30T00:38:35.435Z,-0.65
2019-01-30T00:39:35.428Z,-0.70
2019-01-30T00:40:35.413Z,-0.63
2019-01-30T00:41:35.403Z,-0.60
2019-01-30T00:42:35.389Z,-0.62
2019-01-30T00:43:35.380Z,-0.55
2019-01-30T00:44:35.373Z,-0.62
2019-01-30T00:45:35.356Z,-0.63
2019-01-30T00:46:35.348Z,-0.65
2019-01-30T00:47:35.336Z,-0.66
2019-01-30T00:48:35.325Z,-0.72
2019-01-30T00:49:35.318Z,-0.69
2019-01-30T00:50:35.310Z,-0.66
2019-01-30T00:51:35.292Z,-0.66
2019-01-30T00:52:35.282Z,-0.70
2019-01-30T00:53:35.268Z,-0.81
2019-01-30T00:54:35.257Z,-0.70
2019-01-30T00:55:35.252Z,-0.73
2019-01-30T00:56:35.244Z,-0.73
2019-01-30T00:57:35.226Z,-0.75
2019-01-30T00:58:35.213Z,-0.73
2019-01-30T00:59:35.205Z,-0.78
2019-01-30T01:00:35.207Z,-0.73
2019-01-30T01:01:35.192Z,-0.73
2019-01-30T01:02:35.170Z,-0.78
2019-01-30T01:03:35.158Z,-0.70
2019-01-30T01:04:35.150Z,-0.80
2019-01-30T01:05:35.137Z,-0.65
2019-01-30T01:06:35.127Z,-0.78
2019-01-30T01:07:35.118Z,-0.77
2019-01-30T01:08:35.130Z,-0.73
2019-01-30T01:09:35.094Z,-0.70
2019-01-30T01:10:35.083Z,-0.81
2019-01-30T01:11:35.072Z,-0.78
2019-01-30T01:12:35.062Z,-0.80
2019-01-30T01:13:35.074Z,-0.92
2019-01-30T01:14:35.042Z,-0.87
2019-01-30T01:15:35.028Z,-0.86
2019-01-30T01:16:35.018Z,-0.92
2019-01-30T01:17:35.011Z,-0.89
2019-01-30T01:18:34.996Z,-0.95
2019-01-30T01:19:34.990Z,-0.99
2019-01-30T01:20:34.981Z,-0.95
2019-01-30T01:21:34.962Z,-0.89
2019-01-30T01:22:34.956Z,-0.91
2019-01-30T01:23:34.947Z,-0.87
2019-01-30T01:24:34.933Z,-0.92
2019-01-30T01:25:34.920Z,-0.94
2019-01-30T01:26:34.910Z,-1.09
2019-01-30T01:27:34.897Z,-1.12
2019-01-30T01:28:34.887Z,-1.21
2019-01-30T01:29:34.877Z,-1.18
2019-01-30T01:30:34.870Z,-1.12
2019-01-30T01:31:34.854Z,-1.06
2019-01-30T01:32:34.842Z,-1.10
2019-01-30T01:33:34.834Z,-1.09
2019-01-30T01:34:34.822Z,-1.09
2019-01-30T01:35:34.810Z,-1.12
2019-01-30T01:36:34.797Z,-1.10
2019-01-30T01:37:34.788Z,-1.10
2019-01-30T01:38:34.776Z,-1.23
2019-01-30T01:39:34.765Z,-1.10
2019-01-30T01:40:34.755Z,-1.15
2019-01-30T01:41:34.746Z,-1.12
2019-01-30T01:42:34.737Z,-1.17
2019-01-30T01:43:34.721Z,-1.09
2019-01-30T01:44:34.710Z,-1.15
2019-01-30T01:45:34.707Z,-1.12
2019-01-30T01:46:34.689Z,-1.13
2019-01-30T01:47:34.683Z,-1.17
2019-01-30T01:48:34.666Z,-1.07
2019-01-30T01:49:34.655Z,-1.20
2019-01-30T01:50:34.643Z,-1.17
2019-01-30T01:51:34.634Z,-1.13
2019-01-30T01:52:34.632Z,-1.10
2019-01-30T01:53:34.611Z,-1.07
2019-01-30T01:54:34.603Z,-1.03
2019-01-30T01:55:34.590Z,-1.21
2019-01-30T01:56:34.578Z,-1.24
2019-01-30T01:57:34.566Z,-1.07
2019-01-30T01:58:34.558Z,-1.21
2019-01-30T01:59:34.545Z,-1.21
2019-01-30T02:00:35.512Z,-1.24
2019-01-30T02:01:34.525Z,-1.31
2019-01-30T02:02:34.514Z,-1.24
2019-01-30T02:03:34.503Z,-1.18
2019-01-30T02:04:34.492Z,-1.21
2019-01-30T02:05:34.483Z,-1.24
2019-01-30T02:06:34.469Z,-1.21
2019-01-30T02:07:34.458Z,-1.28
2019-01-30T02:08:34.452Z,-1.20
2019-01-30T02:09:34.436Z,-1.15
2019-01-30T02:10:35.738Z,-1.15
2019-01-30T02:11:34.417Z,-1.20
2019-01-30T02:12:34.403Z,-1.20
2019-01-30T02:13:34.393Z,-1.18
2019-01-30T02:14:34.382Z,-1.17
2019-01-30T02:15:34.371Z,-1.18
2019-01-30T02:16:34.362Z,-1.21
2019-01-30T02:17:34.458Z,-1.07
2019-01-30T02:18:34.339Z,-1.12
2019-01-30T02:19:34.328Z,-1.15
2019-01-30T02:20:34.319Z,-1.24
2019-01-30T02:21:34.315Z,-1.20
2019-01-30T02:22:34.299Z,-1.18
2019-01-30T02:23:34.290Z,-1.24
2019-01-30T02:24:34.271Z,-1.20
2019-01-30T02:25:34.262Z,-1.17
2019-01-30T02:26:34.250Z,-1.18
2019-01-30T02:27:34.271Z,-1.21
2019-01-30T02:28:34.228Z,-1.25
2019-01-30T02:29:34.218Z,-1.18
2019-01-30T02:30:34.211Z,-1.18
2019-01-30T02:31:34.195Z,-1.21
2019-01-30T02:32:34.189Z,-1.21
2019-01-30T02:33:34.175Z,-1.20
2019-01-30T02:34:34.167Z,-1.21
2019-01-30T02:35:34.151Z,-1.15
2019-01-30T02:36:34.139Z,-1.17
2019-01-30T02:37:34.133Z,-1.18
2019-01-30T02:38:34.124Z,-1.17
2019-01-30T02:39:34.110Z,-1.06
2019-01-30T02:40:34.098Z,-1.13
2019-01-30T02:41:34.085Z,-1.15
2019-01-30T02:42:34.076Z,-1.21
2019-01-30T02:43:34.064Z,-1.20
2019-01-30T02:44:34.053Z,-1.20
2019-01-30T02:45:34.043Z,-1.13
2019-01-30T02:46:34.031Z,-1.15
2019-01-30T02:47:34.022Z,-1.24
2019-01-30T02:48:34.009Z,-1.24
2019-01-30T02:49:33.999Z,-1.21
2019-01-30T02:50:35.144Z,-1.21
2019-01-30T02:51:33.994Z,-1.21
2019-01-30T02:52:33.963Z,-1.20
2019-01-30T02:53:33.961Z,-1.33
2019-01-30T02:54:33.944Z,-1.35
2019-01-30T02:55:33.940Z,-1.33
2019-01-30T02:56:33.925Z,-1.33
2019-01-30T02:57:33.910Z,-1.30
2019-01-30T02:58:33.907Z,-1.25
2019-01-30T02:59:33.889Z,-1.28
2019-01-30T03:00:33.877Z,-1.31
2019-01-30T03:01:33.867Z,-1.36
2019-01-30T03:02:33.856Z,-1.20
2019-01-30T03:03:33.846Z,-1.25
2019-01-30T03:04:33.834Z,-1.28
2019-01-30T03:05:33.823Z,-1.30
2019-01-30T03:06:33.813Z,-1.33
2019-01-30T03:07:33.801Z,-1.31
2019-01-30T03:08:33.794Z,-1.28
2019-01-30T03:09:33.781Z,-1.30
2019-01-30T03:10:33.767Z,-1.35
2019-01-30T03:11:33.759Z,-1.33
2019-01-30T03:12:33.750Z,-1.28
2019-01-30T03:13:33.734Z,-1.31
2019-01-30T03:14:33.726Z,-1.33
2019-01-30T03:15:33.713Z,-1.35
2019-01-30T03:16:33.702Z,-1.28
2019-01-30T03:17:33.691Z,-1.27
2019-01-30T03:18:33.683Z,-1.31
2019-01-30T03:19:33.669Z,-1.30
2019-01-30T03:20:33.660Z,-1.36
2019-01-30T03:21:33.647Z,-1.30
2019-01-30T03:22:33.636Z,-1.39
2019-01-30T03:23:33.625Z,-1.35
2019-01-30T03:24:33.614Z,-1.31
2019-01-30T03:25:33.605Z,-1.33
2019-01-30T03:26:33.593Z,-1.36
2019-01-30T03:27:33.584Z,-1.31
2019-01-30T03:28:33.573Z,-1.30
2019-01-30T03:29:33.568Z,-1.30
2019-01-30T03:30:33.715Z,-1.27
2019-01-30T03:31:33.539Z,-1.35
2019-01-30T03:32:33.528Z,-1.31
2019-01-30T03:33:33.556Z,-1.27
2019-01-30T03:34:33.505Z,-1.31
2019-01-30T03:35:33.493Z,-1.35
2019-01-30T03:36:33.485Z,-1.28
2019-01-30T03:37:33.474Z,-1.31
2019-01-30T03:38:33.464Z,-1.41
2019-01-30T03:39:33.461Z,-1.49
2019-01-30T03:40:33.450Z,-1.48
2019-01-30T03:41:33.430Z,-1.49
2019-01-30T03:42:33.422Z,-1.49
2019-01-30T03:43:33.424Z,-1.51
2019-01-30T03:44:33.405Z,-1.38
2019-01-30T03:45:33.389Z,-1.42
2019-01-30T03:46:33.383Z,-1.51
2019-01-30T03:47:33.362Z,-1.59
2019-01-30T03:48:33.351Z,-1.60
2019-01-30T03:49:33.342Z,-1.63
2019-01-30T03:50:33.333Z,-1.49
2019-01-30T03:51:33.328Z,-1.62
2019-01-30T03:52:33.327Z,-1.51
2019-01-30T03:53:33.299Z,-1.60
2019-01-30T03:54:33.289Z,-1.67
2019-01-30T03:55:33.277Z,-1.56
2019-01-30T03:56:33.263Z,-1.56
2019-01-30T03:57:33.255Z,-1.66
2019-01-30T03:58:33.244Z,-1.63
2019-01-30T03:59:33.238Z,-1.57
2019-01-30T04:00:33.223Z,-1.63
2019-01-30T04:01:33.215Z,-1.60
2019-01-30T04:02:33.198Z,-1.66
2019-01-30T04:05:02.161Z,-1.72
2019-01-30T04:06:22.791Z,-1.77
2019-01-30T04:07:44.209Z,-1.67
2019-01-30T04:09:03.819Z,-1.69
2019-01-30T04:10:26.427Z,-1.60
2019-01-30T04:11:47.060Z,-1.67
2019-01-30T04:13:08.492Z,-1.67
2019-01-30T04:14:28.084Z,-1.75
2019-01-30T04:16:01.761Z,-1.77
2019-01-30T04:17:01.755Z,-1.77
2019-01-30T04:18:01.736Z,-1.74
2019-01-30T04:19:01.729Z,-1.77
2019-01-30T04:20:01.717Z,-1.82
2019-01-30T04:21:01.704Z,-1.77
2019-01-30T04:22:01.693Z,-1.77
2019-01-30T04:23:01.683Z,-1.78
2019-01-30T04:24:01.669Z,-1.69
2019-01-30T04:25:01.671Z,-1.74
2019-01-30T04:26:01.670Z,-1.82
2019-01-30T04:27:01.647Z,-1.82
2019-01-30T04:28:01.626Z,-1.72
2019-01-30T04:29:01.618Z,-1.82
2019-01-30T04:30:01.609Z,-1.84
2019-01-30T04:31:01.594Z,-1.80
2019-01-30T04:32:01.587Z,-1.85
2019-01-30T04:33:01.586Z,-1.81
2019-01-30T04:34:01.573Z,-1.80
2019-01-30T04:35:01.550Z,-1.81
2019-01-30T04:36:01.541Z,-1.84
2019-01-30T04:37:01.537Z,-1.82
2019-01-30T04:38:21.164Z,-1.82
2019-01-30T04:39:43.558Z,-1.84
2019-01-30T04:40:43.549Z,-1.78
2019-01-30T04:42:03.162Z,-1.87
2019-01-30T04:43:25.587Z,-1.81
2019-01-30T04:44:25.580Z,-1.80
2019-01-30T04:45:25.558Z,-1.82
2019-01-30T04:46:25.549Z,-1.81
2019-01-30T04:47:25.537Z,-1.77
2019-01-30T04:48:25.526Z,-1.80
2019-01-30T04:49:25.513Z,-1.85
2019-01-30T04:50:25.507Z,-1.75
2019-01-30T04:51:25.492Z,-1.82
2019-01-30T04:52:25.484Z,-1.82
2019-01-30T04:53:25.472Z,-1.81
2019-01-30T04:54:25.463Z,-1.82
2019-01-30T04:55:25.450Z,-1.85
2019-01-30T04:56:25.437Z,-1.77
2019-01-30T04:57:25.427Z,-1.77
2019-01-30T04:58:25.419Z,-1.82
2019-01-30T04:59:25.414Z,-1.78
2019-01-30T05:00:25.396Z,-1.82
2019-01-30T05:01:25.384Z,-1.88
2019-01-30T05:02:25.371Z,-1.77
2019-01-30T05:03:25.362Z,-1.82
2019-01-30T05:04:25.354Z,-1.77
2019-01-30T05:05:25.352Z,-1.77
2019-01-30T05:06:25.328Z,-1.85
2019-01-30T05:07:25.320Z,-1.77
2019-01-30T05:08:25.306Z,-1.84
2019-01-30T05:09:25.298Z,-1.81
2019-01-30T05:10:25.288Z,-1.77
2019-01-30T05:11:25.279Z,-1.81
2019-01-30T05:12:25.266Z,-1.77
2019-01-30T05:13:25.252Z,-1.80
2019-01-30T05:14:25.259Z,-1.81
2019-01-30T05:15:25.230Z,-1.87
2019-01-30T05:16:25.281Z,-1.78
2019-01-30T05:17:25.218Z,-1.78
2019-01-30T05:18:25.197Z,-1.80
2019-01-30T05:19:25.195Z,-1.81
2019-01-30T05:20:25.175Z,-1.80
2019-01-30T05:21:25.167Z,-1.80
2019-01-30T05:22:25.154Z,-1.74
2019-01-30T05:23:25.144Z,-1.81
2019-01-30T05:24:25.135Z,-1.80
2019-01-30T05:25:25.121Z,-1.81
2019-01-30T05:26:25.109Z,-1.81
2019-01-30T05:27:25.099Z,-1.77
2019-01-30T05:28:25.093Z,-1.88
2019-01-30T05:29:25.148Z,-1.81
2019-01-30T05:30:25.075Z,-1.80
2019-01-30T05:31:25.055Z,-1.85
2019-01-30T05:32:25.046Z,-1.77
2019-01-30T05:33:25.039Z,-1.80
2019-01-30T05:34:25.038Z,-1.77
2019-01-30T05:35:25.013Z,-1.78
2019-01-30T05:36:25.108Z,-1.77
2019-01-30T05:37:24.991Z,-1.80
2019-01-30T05:38:25.040Z,-1.78
2019-01-30T05:39:24.972Z,-1.84
2019-01-30T05:40:24.961Z,-1.77
2019-01-30T05:41:24.947Z,-1.87
2019-01-30T05:42:24.938Z,-1.80
2019-01-30T05:43:24.924Z,-1.77
2019-01-30T05:44:24.916Z,-1.82
2019-01-30T05:45:24.906Z,-1.75
2019-01-30T05:46:24.890Z,-1.82
2019-01-30T05:47:24.952Z,-1.74
2019-01-30T05:48:24.871Z,-1.70
2019-01-30T05:49:24.979Z,-1.74
2019-01-30T05:50:24.857Z,-1.78
2019-01-30T05:51:24.838Z,-1.82
2019-01-30T05:52:24.828Z,-1.82
2019-01-30T05:53:24.815Z,-1.85
2019-01-30T05:54:24.807Z,-1.81
2019-01-30T05:55:24.793Z,-1.80
2019-01-30T05:56:24.787Z,-1.80
2019-01-30T05:57:24.772Z,-1.81
2019-01-30T05:58:24.761Z,-1.72
2019-01-30T05:59:24.750Z,-1.67
2019-01-30T06:00:24.739Z,-1.77
2019-01-30T06:01:24.727Z,-1.74
2019-01-30T06:02:24.720Z,-1.72
2019-01-30T06:03:24.710Z,-1.70
2019-01-30T06:04:24.696Z,-1.78
2019-01-30T06:05:24.684Z,-1.77
2019-01-30T06:06:24.674Z,-1.75
2019-01-30T06:07:24.670Z,-1.81
2019-01-30T06:08:24.660Z,-1.75
2019-01-30T06:09:24.640Z,-1.74
2019-01-30T06:10:24.630Z,-1.81
2019-01-30T06:11:24.620Z,-1.75
2019-01-30T06:12:24.609Z,-1.72
2019-01-30T06:13:24.598Z,-1.78
2019-01-30T06:14:24.587Z,-1.67
2019-01-30T06:15:24.575Z,-1.72
2019-01-30T06:16:24.565Z,-1.80
2019-01-30T06:17:24.555Z,-1.72
2019-01-30T06:18:24.542Z,-1.72
2019-01-30T06:19:24.533Z,-1.72
2019-01-30T06:20:24.526Z,-1.77
2019-01-30T06:21:24.511Z,-1.75
2019-01-30T06:22:24.498Z,-1.69
2019-01-30T06:23:24.488Z,-1.75
2019-01-30T06:24:24.485Z,-1.70
2019-01-30T06:25:24.473Z,-1.67
2019-01-30T06:26:24.458Z,-1.69
2019-01-30T06:27:24.443Z,-1.64
2019-01-30T06:28:28.740Z,-1.62
2019-01-30T06:29:24.422Z,-1.66
2019-01-30T06:30:24.411Z,-1.63
2019-01-30T06:31:24.401Z,-1.66
2019-01-30T06:32:24.389Z,-1.66
2019-01-30T06:33:24.387Z,-1.59
2019-01-30T06:34:24.366Z,-1.60
2019-01-30T06:35:24.373Z,-1.62
2019-01-30T06:36:24.349Z,-1.63
2019-01-30T06:37:24.336Z,-1.60
2019-01-30T06:38:24.335Z,-1.57
2019-01-30T06:39:24.313Z,-1.57
2019-01-30T06:40:24.302Z,-1.63
2019-01-30T06:41:24.298Z,-1.67
2019-01-30T06:42:24.282Z,-1.64
2019-01-30T06:43:24.270Z,-1.60
2019-01-30T06:44:24.282Z,-1.59
2019-01-30T06:45:24.249Z,-1.57
2019-01-30T06:46:24.240Z,-1.46
2019-01-30T06:47:24.224Z,-1.59
2019-01-30T06:48:24.213Z,-1.54
2019-01-30T06:49:24.215Z,-1.62
2019-01-30T06:50:24.196Z,-1.57
2019-01-30T06:51:24.184Z,-1.59
2019-01-30T06:52:24.172Z,-1.54
2019-01-30T06:53:24.170Z,-1.54
2019-01-30T06:54:24.179Z,-1.62
2019-01-30T06:55:24.140Z,-1.62
2019-01-30T06:56:24.128Z,-1.43
2019-01-30T06:57:24.120Z,-1.42
2019-01-30T06:58:24.108Z,-1.39
2019-01-30T06:59:24.116Z,-1.39
2019-01-30T07:00:24.095Z,-1.31
2019-01-30T07:01:24.082Z,-1.30
2019-01-30T07:02:32.064Z,-1.30
2019-01-30T07:03:25.054Z,-1.42
2019-01-30T07:04:24.048Z,-1.36
2019-01-30T07:05:24.030Z,-1.31
2019-01-30T07:06:24.025Z,-1.30
2019-01-30T07:07:24.009Z,-1.28
2019-01-30T07:08:23.996Z,-1.41
2019-01-30T07:09:23.985Z,-1.33
2019-01-30T07:10:23.977Z,-1.33
2019-01-30T07:11:23.966Z,-1.35
2019-01-30T07:12:23.952Z,-1.42
2019-01-30T07:13:24.227Z,-1.39
2019-01-30T07:14:23.932Z,-1.33
2019-01-30T07:15:23.923Z,-1.28
2019-01-30T07:16:23.915Z,-1.35
2019-01-30T07:17:23.903Z,-1.33
2019-01-30T07:18:23.891Z,-1.23
2019-01-30T07:19:23.877Z,-1.28
2019-01-30T07:20:23.866Z,-1.31
2019-01-30T07:21:23.854Z,-1.24
2019-01-30T07:22:23.861Z,-1.35
2019-01-30T07:23:23.832Z,-1.35
2019-01-30T07:24:23.823Z,-1.30
2019-01-30T07:25:23.813Z,-1.23
2019-01-30T07:26:23.804Z,-1.21
2019-01-30T07:27:23.791Z,-1.17
2019-01-30T07:28:23.780Z,-1.17
2019-01-30T07:29:23.788Z,-1.15
2019-01-30T07:30:23.760Z,-1.13
2019-01-30T07:31:23.748Z,-1.18
2019-01-30T07:32:23.735Z,-1.21
2019-01-30T07:33:23.728Z,-1.17
2019-01-30T07:34:23.718Z,-1.18
2019-01-30T07:35:23.708Z,-1.21
2019-01-30T07:36:23.691Z,-1.20
2019-01-30T07:37:23.681Z,-1.15
2019-01-30T07:38:23.715Z,-1.12
2019-01-30T07:39:23.659Z,-1.13
2019-01-30T07:40:23.676Z,-1.10
2019-01-30T07:41:23.635Z,-1.02
2019-01-30T07:42:23.627Z,-1.05
2019-01-30T07:43:23.623Z,-1.00
2019-01-30T07:44:23.609Z,-0.92
2019-01-30T07:45:23.624Z,-0.87
2019-01-30T07:46:23.582Z,-0.91
2019-01-30T07:47:23.570Z,-0.86
2019-01-30T07:48:26.362Z,-0.86
2019-01-30T07:49:24.575Z,-0.94
2019-01-30T07:50:23.554Z,-0.83
2019-01-30T07:51:23.526Z,-0.77
2019-01-30T07:52:23.515Z,-0.80
2019-01-30T07:53:23.506Z,-0.73
2019-01-30T07:54:23.493Z,-0.73
2019-01-30T07:55:23.483Z,-0.77
2019-01-30T07:56:23.472Z,-0.84
2019-01-30T07:57:23.463Z,-0.77
2019-01-30T07:58:23.456Z,-0.77
2019-01-30T07:59:23.454Z,-0.84
2019-01-30T08:00:23.428Z,-0.77
2019-01-30T08:01:23.417Z,-0.77
2019-01-30T08:02:23.405Z,-0.73
2019-01-30T08:03:23.397Z,-0.78
2019-01-30T08:04:23.391Z,-0.68
2019-01-30T08:05:23.376Z,-0.68
2019-01-30T08:06:23.362Z,-0.55
2019-01-30T08:07:23.356Z,-0.54
2019-01-30T08:08:23.340Z,-0.52
2019-01-30T08:09:23.332Z,-0.57
2019-01-30T08:10:23.319Z,-0.55
2019-01-30T08:11:23.309Z,-0.60
2019-01-30T08:12:23.302Z,-0.41
2019-01-30T08:13:23.286Z,-0.47
2019-01-30T08:14:23.275Z,-0.42
2019-01-30T08:15:23.264Z,-0.57
2019-01-30T08:16:23.255Z,-0.45
2019-01-30T08:17:23.244Z,-0.45
2019-01-30T08:18:23.232Z,-0.31
2019-01-30T08:19:23.221Z,-0.36
2019-01-30T08:20:23.208Z,-0.26
2019-01-30T08:21:23.197Z,-0.27
2019-01-30T08:22:23.188Z,-0.27
2019-01-30T08:23:23.176Z,-0.22
2019-01-30T08:24:23.409Z,-0.09
2019-01-30T08:25:23.231Z,-0.12
2019-01-30T08:26:25.561Z,-0.09
2019-01-30T08:27:23.428Z,-0.11
2019-01-30T08:28:23.590Z,-0.12
2019-01-30T08:29:23.194Z,-0.09
2019-01-30T08:30:23.531Z,0.00
2019-01-30T08:31:23.492Z,-0.08
2019-01-30T08:32:23.554Z,-0.06
2019-01-30T08:33:23.066Z,-0.04
2019-01-30T08:34:23.062Z,-0.04
2019-01-30T08:35:23.048Z,0.02
2019-01-30T08:36:23.034Z,-0.04
2019-01-30T08:37:23.025Z,-0.04
2019-01-30T08:38:23.011Z,-0.04
2019-01-30T08:39:23.002Z,-0.04
2019-01-30T08:40:22.989Z,0.05
2019-01-30T08:41:23.071Z,0.06
2019-01-30T08:42:22.969Z,0.05
2019-01-30T08:43:22.957Z,0.06
2019-01-30T08:44:22.944Z,0.06
2019-01-30T08:45:22.935Z,0.10
2019-01-30T08:46:22.929Z,0.10
2019-01-30T08:47:22.918Z,0.16
2019-01-30T08:48:22.902Z,0.10
2019-01-30T08:49:22.891Z,0.23
2019-01-30T08:50:22.886Z,0.23
2019-01-30T08:51:22.885Z,0.20
2019-01-30T08:52:22.872Z,0.27
2019-01-30T08:53:22.848Z,0.25
2019-01-30T08:54:22.841Z,0.34
2019-01-30T08:55:22.823Z,0.30
2019-01-30T08:56:22.817Z,0.30
2019-01-30T08:57:22.812Z,0.36
2019-01-30T08:58:22.799Z,0.43
2019-01-30T08:59:22.781Z,0.28
2019-01-30T09:00:22.771Z,0.43
2019-01-30T09:01:22.765Z,0.36
2019-01-30T09:02:22.747Z,0.53
2019-01-30T09:03:22.736Z,0.43
2019-01-30T09:04:22.725Z,0.48
2019-01-30T09:05:22.718Z,0.53
2019-01-30T09:06:22.704Z,0.46
2019-01-30T09:07:22.695Z,0.53
2019-01-30T09:08:22.699Z,0.38
2019-01-30T09:09:22.682Z,0.49
2019-01-30T09:10:22.659Z,0.51
2019-01-30T09:11:22.648Z,0.46
2019-01-30T09:12:22.637Z,0.42
2019-01-30T09:13:22.627Z,0.46
2019-01-30T09:14:22.617Z,0.48
2019-01-30T09:15:22.623Z,0.51
2019-01-30T09:16:22.597Z,0.49
2019-01-30T09:17:22.584Z,0.51
2019-01-30T09:18:22.571Z,0.58
2019-01-30T09:19:22.561Z,0.57
2019-01-30T09:20:22.552Z,0.62
2019-01-30T09:21:22.592Z,0.58
2019-01-30T09:22:22.528Z,0.48
2019-01-30T09:23:22.523Z,0.49
2019-01-30T09:24:22.513Z,0.60
2019-01-30T09:25:22.494Z,0.48
2019-01-30T09:26:22.485Z,0.46
2019-01-30T09:27:24.257Z,0.48
2019-01-30T09:28:22.462Z,0.58
2019-01-30T09:29:22.450Z,0.62
2019-01-30T09:30:22.440Z,0.58
2019-01-30T09:31:22.432Z,0.71
2019-01-30T09:32:22.431Z,0.72
2019-01-30T09:33:25.836Z,0.72
2019-01-30T09:34:22.396Z,0.67
2019-01-30T09:35:22.385Z,0.75
2019-01-30T09:36:22.375Z,0.72
2019-01-30T09:37:22.363Z,0.85
2019-01-30T09:38:22.381Z,0.82
2019-01-30T09:39:22.412Z,0.78
2019-01-30T09:40:22.329Z,0.82
2019-01-30T09:41:22.318Z,0.82
2019-01-30T09:42:22.307Z,0.83
2019-01-30T09:43:22.298Z,0.89
2019-01-30T09:44:22.285Z,0.89
2019-01-30T09:45:22.283Z,0.96
2019-01-30T09:46:22.263Z,0.98
2019-01-30T09:47:22.273Z,1.04
2019-01-30T09:48:22.244Z,1.10
2019-01-30T09:49:22.242Z,1.04
2019-01-30T09:50:22.220Z,1.00
2019-01-30T09:51:22.209Z,1.07
2019-01-30T09:52:26.961Z,1.10
2019-01-30T09:53:23.228Z,1.06
2019-01-30T09:54:22.176Z,1.00
2019-01-30T09:55:22.164Z,1.16
2019-01-30T09:56:22.155Z,1.18
2019-01-30T09:57:22.158Z,1.16
2019-01-30T09:58:23.862Z,1.29
2019-01-30T09:59:22.121Z,1.22
2019-01-30T10:00:22.116Z,1.25
2019-01-30T10:01:22.108Z,1.16
2019-01-30T10:02:22.087Z,1.32
2019-01-30T10:03:22.110Z,1.26
2019-01-30T10:04:22.075Z,1.29
2019-01-30T10:05:22.057Z,1.42
2019-01-30T10:06:22.055Z,1.37
2019-01-30T10:07:22.033Z,1.39
2019-01-30T10:08:22.022Z,1.42
2019-01-30T10:09:22.012Z,1.55
2019-01-30T10:10:22.000Z,1.37
2019-01-30T10:11:21.989Z,1.39
2019-01-30T10:12:21.980Z,1.37
2019-01-30T10:13:21.969Z,1.44
2019-01-30T10:14:21.956Z,1.51
2019-01-30T10:15:21.951Z,1.52
2019-01-30T10:16:21.936Z,1.51
2019-01-30T10:17:21.929Z,1.69
2019-01-30T10:18:21.912Z,1.72
2019-01-30T10:19:21.904Z,1.76
2019-01-30T10:20:21.892Z,1.71
2019-01-30T10:21:21.880Z,1.80
2019-01-30T10:22:21.871Z,1.79
2019-01-30T10:23:21.864Z,1.80
2019-01-30T10:24:21.846Z,1.87
2019-01-30T10:25:21.836Z,1.83
2019-01-30T10:26:21.825Z,1.93
2019-01-30T10:27:21.813Z,1.91
2019-01-30T10:28:21.803Z,1.91
2019-01-30T10:29:21.793Z,1.85
2019-01-30T10:30:21.784Z,1.83
2019-01-30T10:31:21.773Z,1.99
2019-01-30T10:32:21.759Z,1.93
2019-01-30T10:33:21.748Z,1.91
2019-01-30T10:34:21.815Z,2.01
2019-01-30T10:35:21.727Z,2.01
2019-01-30T10:36:21.755Z,1.98
2019-01-30T10:37:21.702Z,2.01
2019-01-30T10:38:21.693Z,2.08
2019-01-30T10:39:21.712Z,2.26
2019-01-30T10:40:21.677Z,2.12
2019-01-30T10:41:21.661Z,2.20
2019-01-30T10:42:21.651Z,2.19
2019-01-30T10:43:21.641Z,2.08
2019-01-30T10:44:21.624Z,2.13
2019-01-30T10:45:21.618Z,2.17
2019-01-30T10:46:21.603Z,2.15
2019-01-30T10:47:21.592Z,2.19
2019-01-30T10:48:21.581Z,2.19
2019-01-30T10:49:21.571Z,2.13
2019-01-30T10:50:21.558Z,2.13
2019-01-30T10:51:21.551Z,2.13
2019-01-30T10:52:21.537Z,2.23
2019-01-30T10:53:21.525Z,2.23
2019-01-30T10:54:21.518Z,2.22
2019-01-30T10:55:21.505Z,2.06
2019-01-30T10:56:21.498Z,2.08
2019-01-30T10:57:21.484Z,2.12
2019-01-30T10:58:21.488Z,2.12
2019-01-30T10:59:21.459Z,2.12
2019-01-30T11:00:21.446Z,2.13
2019-01-30T11:01:21.436Z,2.10
2019-01-30T11:02:21.430Z,2.08
2019-01-30T11:03:21.419Z,1.98
2019-01-30T11:04:21.412Z,2.02
2019-01-30T11:05:21.395Z,2.10
2019-01-30T11:06:21.380Z,2.15
2019-01-30T11:07:21.372Z,2.08
2019-01-30T11:08:21.359Z,2.12
2019-01-30T11:09:21.347Z,2.10
2019-01-30T11:10:21.336Z,2.13
2019-01-30T11:11:21.324Z,2.15
2019-01-30T11:12:21.314Z,2.17
2019-01-30T11:13:21.303Z,2.27
2019-01-30T11:14:21.295Z,2.16
2019-01-30T11:15:21.286Z,2.20
2019-01-30T11:16:21.272Z,2.17
2019-01-30T11:17:21.257Z,2.16
2019-01-30T11:18:21.249Z,2.12
2019-01-30T11:19:21.239Z,2.17
2019-01-30T11:20:22.030Z,2.16
2019-01-30T11:21:42.671Z,2.23
2019-01-30T11:23:03.251Z,2.28
2019-01-30T11:24:03.246Z,2.30
2019-01-30T11:25:05.613Z,2.31
2019-01-30T11:26:03.217Z,2.33
2019-01-30T11:27:03.208Z,2.35
2019-01-30T11:28:03.196Z,2.27
2019-01-30T11:29:22.831Z,2.35
2019-01-30T11:31:05.312Z,2.38
2019-01-30T11:34:40.648Z,2.48
2019-01-30T11:36:00.273Z,2.48
2019-01-30T11:37:22.677Z,2.46
2019-01-30T11:44:15.465Z,2.53
2019-01-30T11:45:15.438Z,2.38
2019-01-30T11:46:15.424Z,2.38
2019-01-30T11:47:15.412Z,2.38
2019-01-30T11:48:15.404Z,2.44
2019-01-30T11:49:15.391Z,2.44
2019-01-30T11:50:15.382Z,2.41
2019-01-30T11:51:15.376Z,2.44
2019-01-30T11:52:15.358Z,2.40
2019-01-30T11:53:15.349Z,2.52
2019-01-30T11:54:15.337Z,2.51
2019-01-30T11:55:15.325Z,2.45
2019-01-30T11:56:15.313Z,2.44
2019-01-30T11:57:15.339Z,2.37
2019-01-30T11:58:15.292Z,2.33
2019-01-30T11:59:15.281Z,2.27
2019-01-30T12:00:15.269Z,2.38
2019-01-30T12:01:15.261Z,2.27
2019-01-30T12:02:15.249Z,2.26
2019-01-30T12:03:15.236Z,2.37
2019-01-30T12:04:18.024Z,2.37
2019-01-30T12:05:15.216Z,2.33
2019-01-30T12:06:15.202Z,2.38
2019-01-30T12:07:15.193Z,2.45
2019-01-30T12:08:15.183Z,2.31
2019-01-30T12:09:15.171Z,2.31
2019-01-30T12:10:15.166Z,2.28
2019-01-30T12:11:15.147Z,2.23
2019-01-30T12:12:15.136Z,2.34
2019-01-30T12:13:15.133Z,2.33
2019-01-30T12:14:15.122Z,2.33
2019-01-30T12:15:15.104Z,2.33
2019-01-30T12:16:15.095Z,2.23
2019-01-30T12:17:15.080Z,2.26
2019-01-30T12:18:15.072Z,2.31
2019-01-30T12:19:15.059Z,2.23
2019-01-30T12:20:15.048Z,2.34
2019-01-30T12:21:15.037Z,2.31
2019-01-30T12:22:15.034Z,2.23
2019-01-30T12:23:15.016Z,2.33
2019-01-30T12:24:15.003Z,2.27
2019-01-30T12:25:14.993Z,2.34
2019-01-30T12:26:14.983Z,2.38
2019-01-30T12:27:14.978Z,2.49
2019-01-30T12:28:14.967Z,2.49
2019-01-30T12:29:14.946Z,2.44
2019-01-30T12:30:14.938Z,2.46
2019-01-30T12:31:14.930Z,2.49
2019-01-30T12:32:14.916Z,2.46
2019-01-30T12:33:14.906Z,2.51
2019-01-30T12:34:14.892Z,2.51
2019-01-30T12:35:14.881Z,2.51
2019-01-30T12:36:14.876Z,2.53
2019-01-30T12:37:14.858Z,2.56
2019-01-30T12:38:14.851Z,2.48
2019-01-30T12:39:14.835Z,2.48
2019-01-30T12:40:14.823Z,2.55
2019-01-30T12:41:14.816Z,2.51
2019-01-30T12:42:14.804Z,2.49
2019-01-30T12:43:14.790Z,2.58
2019-01-30T12:44:14.782Z,2.56
2019-01-30T12:45:14.769Z,2.56
2019-01-30T12:46:14.758Z,2.58
2019-01-30T12:47:19.934Z,2.56
2019-01-30T12:48:15.740Z,2.52
2019-01-30T12:49:14.726Z,2.49
2019-01-30T12:50:14.718Z,2.48
2019-01-30T12:51:14.701Z,2.49
2019-01-30T12:52:14.692Z,2.59
2019-01-30T12:53:14.680Z,2.55
2019-01-30T12:54:14.681Z,2.55
2019-01-30T12:55:14.657Z,2.52
2019-01-30T12:56:14.648Z,2.46
2019-01-30T12:57:14.635Z,2.48
2019-01-30T12:58:14.629Z,2.56
2019-01-30T12:59:14.625Z,2.48
2019-01-30T13:00:14.615Z,2.49
2019-01-30T13:01:14.597Z,2.61
2019-01-30T13:02:14.579Z,2.56
2019-01-30T13:03:14.567Z,2.56
2019-01-30T13:04:14.557Z,2.58
2019-01-30T13:05:14.547Z,2.59
2019-01-30T13:06:14.539Z,2.64
2019-01-30T13:07:14.527Z,2.55
2019-01-30T13:08:14.514Z,2.55
2019-01-30T13:09:14.501Z,2.53
2019-01-30T13:10:14.494Z,2.53
2019-01-30T13:11:14.482Z,2.59
2019-01-30T13:12:14.469Z,2.44
2019-01-30T13:13:14.459Z,2.48
2019-01-30T13:14:14.445Z,2.49
2019-01-30T13:15:14.434Z,2.53
2019-01-30T13:16:14.433Z,2.48
2019-01-30T13:17:14.415Z,2.63
2019-01-30T13:18:18.511Z,2.49